Terminal Aerodrome Forecast
Issued by NWS

Home | Current Version | Previous Version | Text Only | Print | Product List | Glossary On
Versions: 1 2 3 4 5 6 7 8 9 10 11 12 13 14 15 16 17
000
FTUS43 KGRR 290857 AAA
TAFJXN
TAF AMD
KJXN 290857Z 2909/3006 06009KT P6SM -RA BKN008 OVC015
      TEMPO 2909/2913 4SM -RA BR
     FM291300 06009KT 5SM -RA BR OVC009
     FM300000 05011KT P6SM -RA OVC009=

USA.gov is the U.S. government's official web portal to all federal, state and local government web resources and services.